createdAt,value
2018-04-06T00:02:05.072Z,61.76
2018-04-06T00:04:33.988Z,61.85
2018-04-06T00:07:02.951Z,62.03
2018-04-06T00:09:32.519Z,62.08
2018-04-06T00:12:03.090Z,62.00
2018-04-06T00:14:31.984Z,62.48
2018-04-06T00:17:01.268Z,62.59
2018-04-06T00:19:30.170Z,62.50
2018-04-06T00:21:59.113Z,62.52
2018-04-06T00:24:28.493Z,62.75
2018-04-06T00:26:57.390Z,62.50
2018-04-06T00:29:26.259Z,62.74
2018-04-06T00:31:55.719Z,62.79
2018-04-06T00:34:25.610Z,62.88
2018-04-06T00:36:54.839Z,62.90
2018-04-06T00:39:25.476Z,62.93
2018-04-06T00:41:55.080Z,63.20
2018-04-06T00:44:23.931Z,63.29
2018-04-06T00:46:52.776Z,63.07
2018-04-06T00:49:21.670Z,62.76
2018-04-06T00:51:50.897Z,62.54
2018-04-06T00:54:19.880Z,62.72
2018-04-06T00:56:48.831Z,62.65
2018-04-06T00:59:18.231Z,61.98
2018-04-06T01:01:47.209Z,61.79
2018-04-06T01:04:16.096Z,61.86
2018-04-06T01:06:45.441Z,62.27
2018-04-06T01:09:14.434Z,61.74
2018-04-06T01:11:43.392Z,62.12
2018-04-06T01:14:12.741Z,62.28
2018-04-06T01:16:41.644Z,62.52
2018-04-06T01:19:10.840Z,62.85
2018-04-06T01:21:40.019Z,62.67
2018-04-06T01:24:08.868Z,63.00
2018-04-06T01:26:37.790Z,63.11
2018-04-06T01:29:06.656Z,63.34
2018-04-06T01:31:35.588Z,63.25
2018-04-06T01:34:05.363Z,63.35
2018-04-06T01:36:34.428Z,63.14
2018-04-06T01:39:03.375Z,62.58
2018-04-06T01:41:32.637Z,62.85
2018-04-06T01:44:01.544Z,62.94
2018-04-06T01:46:30.382Z,63.22
2018-04-06T01:48:59.603Z,63.34
2018-04-06T01:51:28.351Z,63.43
2018-04-06T01:53:57.047Z,62.82
2018-04-06T01:56:26.190Z,63.00
2018-04-06T01:58:54.876Z,62.79
2018-04-06T02:01:23.575Z,62.15
2018-04-06T02:03:52.924Z,61.86
2018-04-06T02:06:21.790Z,62.20
2018-04-06T02:08:50.635Z,61.23
2018-04-06T02:11:20.020Z,60.85
2018-04-06T02:13:48.875Z,60.77
2018-04-06T02:16:17.731Z,61.00
2018-04-06T02:18:46.973Z,60.71
2018-04-06T02:21:15.812Z,60.91
2018-04-06T02:23:44.575Z,61.22
2018-04-06T02:26:13.955Z,61.07
2018-04-06T02:28:42.650Z,61.05
2018-04-06T02:31:11.355Z,61.39
2018-04-06T02:33:40.839Z,61.34
2018-04-06T02:36:09.583Z,61.35
2018-04-06T02:38:38.335Z,61.28
2018-04-06T02:41:07.482Z,61.39
2018-04-06T02:43:36.315Z,61.03
2018-04-06T02:46:05.579Z,60.92
2018-04-06T02:48:34.831Z,60.97
2018-04-06T02:51:03.565Z,61.17
2018-04-06T02:53:32.281Z,61.44
2018-04-06T02:56:01.360Z,61.54
2018-04-06T02:58:30.133Z,61.80
2018-04-06T03:00:58.840Z,61.71
2018-04-06T03:03:28.039Z,61.65
2018-04-06T03:05:56.755Z,62.05
2018-04-06T03:08:25.446Z,62.17
2018-04-06T03:10:54.588Z,62.06
2018-04-06T03:13:23.276Z,62.34
2018-04-06T03:15:52.018Z,62.44
2018-04-06T03:18:21.038Z,62.54
2018-04-06T03:20:49.702Z,62.63
2018-04-06T03:23:18.562Z,62.82
2018-04-06T03:25:47.705Z,63.00
2018-04-06T03:28:16.409Z,63.12
2018-04-06T03:30:45.090Z,63.14
2018-04-06T03:33:14.228Z,63.09
2018-04-06T03:35:42.935Z,62.80
2018-04-06T03:38:11.631Z,62.67
2018-04-06T03:40:40.936Z,62.81
2018-04-06T03:43:09.663Z,63.02
2018-04-06T03:45:38.376Z,63.01
2018-04-06T03:48:07.525Z,63.13
2018-04-06T03:50:36.364Z,63.19
2018-04-06T03:53:05.105Z,62.87
2018-04-06T03:55:35.466Z,63.24
2018-04-06T03:58:04.815Z,63.49
2018-04-06T04:00:33.551Z,63.47
2018-04-06T04:03:02.757Z,63.94
2018-04-06T04:05:31.466Z,64.30
2018-04-06T04:08:00.228Z,64.52
2018-04-06T04:10:29.302Z,64.54
2018-04-06T04:12:58.048Z,64.76
2018-04-06T04:15:26.778Z,64.83
2018-04-06T04:17:55.936Z,63.28
2018-04-06T04:20:24.663Z,64.32
2018-04-06T04:22:53.380Z,65.21
2018-04-06T04:25:22.454Z,65.04
2018-04-06T04:27:51.165Z,65.15
2018-04-06T04:30:19.886Z,65.04
2018-04-06T04:35:16.523Z,64.83
2018-04-06T04:37:45.232Z,64.51
2018-04-06T04:40:15.441Z,64.21
2018-04-06T04:42:44.155Z,64.79
2018-04-06T04:45:43.327Z,64.71
2018-04-06T04:48:12.448Z,64.35
2018-04-06T04:50:41.220Z,64.33
2018-04-06T04:53:09.915Z,64.03
2018-04-06T04:55:39.079Z,64.00
2018-04-06T04:58:07.843Z,64.11
2018-04-06T05:00:36.626Z,64.17
2018-04-06T05:03:05.663Z,64.14
2018-04-06T05:05:34.413Z,63.98
2018-04-06T05:08:03.651Z,64.14
2018-04-06T05:10:32.896Z,64.17
2018-04-06T05:13:01.914Z,63.99
2018-04-06T05:17:54.534Z,64.00
2018-04-06T05:20:23.258Z,63.86
2018-04-06T05:22:52.011Z,63.30
2018-04-06T05:25:21.047Z,63.07
2018-04-06T05:27:49.990Z,63.02
2018-04-06T05:30:18.835Z,62.87
2018-04-06T05:32:47.643Z,62.84
2018-04-06T05:35:16.422Z,62.31
2018-04-06T05:37:45.400Z,61.83
2018-04-06T05:40:14.595Z,61.54
2018-04-06T05:42:43.311Z,61.20
2018-04-06T05:45:12.051Z,61.19
2018-04-06T05:47:41.369Z,61.34
2018-04-06T05:50:10.097Z,61.61
2018-04-06T05:52:38.915Z,61.52
2018-04-06T05:55:07.911Z,61.13
2018-04-06T05:57:36.645Z,60.92
2018-04-06T06:00:06.418Z,60.90
2018-04-06T06:02:35.454Z,60.79
2018-04-06T06:05:04.364Z,60.26
2018-04-06T06:07:33.419Z,59.99
2018-04-06T06:10:03.640Z,59.51
2018-04-06T06:12:32.366Z,59.29
2018-04-06T06:15:01.720Z,58.90
2018-04-06T06:17:30.965Z,58.80
2018-04-06T06:19:59.710Z,58.01
2018-04-06T06:22:28.498Z,57.99
2018-04-06T06:25:00.506Z,58.09
2018-04-06T06:27:29.321Z,58.09
2018-04-06T06:29:58.006Z,58.08
2018-04-06T06:32:27.140Z,58.06
2018-04-06T06:34:55.816Z,58.09
2018-04-06T06:37:24.566Z,58.15
2018-04-06T06:39:53.466Z,58.18
2018-04-06T06:42:22.215Z,57.89
2018-04-06T06:44:51.081Z,57.09
2018-04-06T06:47:20.171Z,57.23
2018-04-06T06:49:48.933Z,57.27
2018-04-06T06:52:17.740Z,56.77
2018-04-06T06:54:46.507Z,56.00
2018-04-06T06:57:15.224Z,55.55
2018-04-06T06:59:45.321Z,55.31
2018-04-06T07:02:14.293Z,58.04
2018-04-06T07:04:43.691Z,57.59
2018-04-06T07:07:13.044Z,56.09
2018-04-06T07:09:42.118Z,55.06
2018-04-06T07:12:10.859Z,54.77
2018-04-06T07:14:40.366Z,54.88
2018-04-06T07:17:09.310Z,54.82
2018-04-06T07:19:38.126Z,54.24
2018-04-06T07:22:07.043Z,54.35
2018-04-06T07:24:35.925Z,54.00
2018-04-06T07:27:04.745Z,54.96
2018-04-06T07:29:33.840Z,53.23
2018-04-06T07:32:03.201Z,54.09
2018-04-06T07:34:31.946Z,53.50
2018-04-06T07:37:01.290Z,53.58
2018-04-06T07:39:30.159Z,51.71
2018-04-06T07:41:59.599Z,51.95
2018-04-06T07:44:28.358Z,51.65
2018-04-06T07:46:57.120Z,51.65
2018-04-06T07:49:26.331Z,51.68
2018-04-06T07:51:55.034Z,53.20
2018-04-06T07:54:23.726Z,52.96
2018-04-06T07:56:54.227Z,53.52
2018-04-06T07:59:22.990Z,53.76
2018-04-06T08:01:53.472Z,50.51
2018-04-06T08:04:22.220Z,50.52
2018-04-06T08:06:51.231Z,49.81
2018-04-06T08:09:19.978Z,49.58
2018-04-06T08:11:48.755Z,49.20
2018-04-06T08:14:17.781Z,49.08
2018-04-06T08:16:46.582Z,49.06
2018-04-06T08:19:15.311Z,47.90
2018-04-06T08:21:45.007Z,48.43
2018-04-06T08:24:14.160Z,47.53
2018-04-06T08:26:42.927Z,47.79
2018-04-06T08:29:11.638Z,47.57
2018-04-06T08:31:41.356Z,47.54
2018-04-06T08:34:10.270Z,47.38
2018-04-06T08:36:39.161Z,46.68
2018-04-06T08:39:08.467Z,46.24
2018-04-06T08:41:37.478Z,45.83
2018-04-06T08:44:06.593Z,45.87
2018-04-06T08:46:35.562Z,46.13
2018-04-06T08:49:04.514Z,45.67
2018-04-06T08:51:33.387Z,45.71
2018-04-06T08:54:03.265Z,45.02
2018-04-06T08:56:32.127Z,44.66
2018-04-06T08:59:01.171Z,45.07
2018-04-06T09:01:30.106Z,44.77
2018-04-06T09:03:59.073Z,43.99
2018-04-06T09:06:28.302Z,43.47
2018-04-06T09:08:57.302Z,43.35
2018-04-06T09:11:26.213Z,43.46
2018-04-06T09:13:55.599Z,42.49
2018-04-06T09:16:24.646Z,42.03
2018-04-06T09:18:54.385Z,41.73
2018-04-06T09:21:23.596Z,41.58
2018-04-06T09:23:52.693Z,40.48
2018-04-06T09:26:21.661Z,40.96
2018-04-06T09:28:50.673Z,39.29
2018-04-06T09:31:19.624Z,39.11
2018-04-06T09:33:48.974Z,38.76
2018-04-06T09:36:18.370Z,38.10
2018-04-06T09:38:48.349Z,37.64
2018-04-06T09:41:18.443Z,37.37
2018-04-06T09:43:48.717Z,36.73
2018-04-06T09:46:18.453Z,36.43
2018-04-06T09:48:49.379Z,36.06
2018-04-06T09:51:18.997Z,36.24
2018-04-06T09:53:48.758Z,36.05
2018-04-06T09:56:18.858Z,35.63
2018-04-06T09:58:48.190Z,34.78
2018-04-06T10:01:17.232Z,34.46
2018-04-06T10:03:46.429Z,34.45
2018-04-06T10:06:15.796Z,34.29
2018-04-06T10:08:45.956Z,33.88
2018-04-06T10:11:15.726Z,33.45
2018-04-06T10:13:45.185Z,33.87
2018-04-06T10:16:15.197Z,33.29
2018-04-06T10:18:45.098Z,32.82
2018-04-06T10:21:14.685Z,32.14
2018-04-06T10:23:44.141Z,31.56
2018-04-06T10:26:14.136Z,31.21
2018-04-06T10:28:43.943Z,30.72
2018-04-06T10:31:13.738Z,30.54
2018-04-06T10:33:43.239Z,30.42
2018-04-06T10:36:12.705Z,29.91
2018-04-06T10:38:42.253Z,29.26
2018-04-06T10:41:11.654Z,29.40
2018-04-06T10:43:40.654Z,29.17
2018-04-06T10:46:10.736Z,28.10
2018-04-06T10:48:40.386Z,27.13
2018-04-06T10:51:10.171Z,27.32
2018-04-06T10:53:40.269Z,27.11
2018-04-06T10:56:10.007Z,26.77
2018-04-06T10:58:39.994Z,26.18
2018-04-06T11:01:09.723Z,25.48
2018-04-06T11:03:39.606Z,25.46
2018-04-06T11:06:09.049Z,25.66
2018-04-06T11:08:39.010Z,25.25
2018-04-06T11:11:08.640Z,24.91
2018-04-06T11:13:38.698Z,24.55
2018-04-06T11:16:07.776Z,24.94
2018-04-06T11:18:37.197Z,23.95
2018-04-06T11:21:07.259Z,24.77
2018-04-06T11:23:37.214Z,24.04
2018-04-06T11:26:06.966Z,23.58
2018-04-06T11:28:37.231Z,23.18
2018-04-06T11:31:07.005Z,23.28
2018-04-06T11:33:37.346Z,23.04
2018-04-06T11:36:07.075Z,22.56
2018-04-06T11:38:36.820Z,22.79
2018-04-06T11:41:06.550Z,22.30
2018-04-06T11:43:35.950Z,22.19
2018-04-06T11:46:05.992Z,22.00
2018-04-06T11:48:35.745Z,22.64
2018-04-06T11:51:05.298Z,22.32
2018-04-06T11:53:35.119Z,21.74
2018-04-06T11:56:06.431Z,21.44
2018-04-06T11:58:35.950Z,21.25
2018-04-06T12:01:05.001Z,20.90
2018-04-06T12:03:34.207Z,21.07
2018-04-06T12:06:04.524Z,21.34
2018-04-06T12:08:33.392Z,20.59
2018-04-06T12:11:02.692Z,20.26
2018-04-06T12:13:31.586Z,20.66
2018-04-06T12:16:00.484Z,20.48
2018-04-06T12:18:29.385Z,20.06
2018-04-06T12:20:58.359Z,19.87
2018-04-06T12:23:27.574Z,20.10
2018-04-06T12:25:56.569Z,20.21
2018-04-06T12:28:25.565Z,19.73
2018-04-06T12:30:54.925Z,19.43
2018-04-06T12:33:23.831Z,19.54
2018-04-06T12:35:52.920Z,19.68
2018-04-06T12:38:22.117Z,19.94
2018-04-06T12:40:51.036Z,20.28
2018-04-06T12:43:19.933Z,20.54
2018-04-06T12:45:49.137Z,19.80
2018-04-06T12:48:18.032Z,20.29
2018-04-06T12:50:46.965Z,20.12
2018-04-06T12:53:16.238Z,20.37
2018-04-06T12:55:45.142Z,19.62
2018-04-06T12:58:14.099Z,20.27
2018-04-06T13:00:43.079Z,20.23
2018-04-06T13:03:12.103Z,19.38
2018-04-06T13:05:41.502Z,18.86
2018-04-06T13:08:10.474Z,19.45
2018-04-06T13:10:39.397Z,19.58
2018-04-06T13:13:08.651Z,19.36
2018-04-06T13:15:37.789Z,19.15
2018-04-06T13:18:06.962Z,18.64
2018-04-06T13:20:36.519Z,18.59
2018-04-06T13:23:06.225Z,19.00
2018-04-06T13:25:36.079Z,19.25
2018-04-06T13:28:06.973Z,18.93
2018-04-06T13:30:36.795Z,18.46
2018-04-06T13:33:06.650Z,18.13
2018-04-06T13:35:36.204Z,18.33
2018-04-06T13:38:06.426Z,17.92
2018-04-06T13:40:36.087Z,17.88
2018-04-06T13:43:05.571Z,17.71
2018-04-06T13:45:35.548Z,17.10
2018-04-06T13:48:06.727Z,17.33
2018-04-06T13:50:36.351Z,17.36
2018-04-06T13:53:06.077Z,17.98
2018-04-06T13:55:36.087Z,17.28
2018-04-06T13:58:07.033Z,17.20
2018-04-06T14:00:36.966Z,17.43
2018-04-06T14:03:06.705Z,16.96
2018-04-06T14:05:36.247Z,16.87
2018-04-06T14:08:06.547Z,16.40
2018-04-06T14:10:36.348Z,16.25
2018-04-06T14:13:06.221Z,16.53
2018-04-06T14:15:36.006Z,16.46
2018-04-06T14:18:06.395Z,15.91
2018-04-06T14:20:36.267Z,15.87
2018-04-06T14:23:06.408Z,15.77
2018-04-06T14:25:36.488Z,15.81
2018-04-06T14:28:07.118Z,15.54
2018-04-06T14:30:37.435Z,15.94
2018-04-06T14:33:07.176Z,16.65
2018-04-06T14:35:36.967Z,16.62
2018-04-06T14:38:07.393Z,16.00
2018-04-06T14:40:36.959Z,16.56
2018-04-06T14:43:06.902Z,16.47
2018-04-06T14:45:36.643Z,16.63
2018-04-06T14:48:06.986Z,16.55
2018-04-06T14:50:36.448Z,16.68
2018-04-06T14:53:06.305Z,16.48
2018-04-06T14:55:36.196Z,16.14
2018-04-06T14:58:07.843Z,16.08
2018-04-06T15:00:37.490Z,16.24
2018-04-06T15:03:07.282Z,16.57
2018-04-06T15:05:37.474Z,16.07
2018-04-06T15:08:07.315Z,15.81
2018-04-06T15:10:37.190Z,16.16
2018-04-06T15:13:07.244Z,16.10
2018-04-06T15:15:36.606Z,16.25
2018-04-06T15:18:06.369Z,16.03
2018-04-06T15:20:36.532Z,15.48
2018-04-06T15:23:05.934Z,15.39
2018-04-06T15:25:35.773Z,15.79
2018-04-06T15:28:07.098Z,16.87
2018-04-06T15:30:36.686Z,17.22
2018-04-06T15:33:06.852Z,16.93
2018-04-06T15:35:36.574Z,17.11
2018-04-06T15:38:07.884Z,16.92
2018-04-06T15:40:38.070Z,16.83
2018-04-06T15:43:08.803Z,17.09
2018-04-06T15:45:39.034Z,17.03
2018-04-06T15:48:08.922Z,17.18
2018-04-06T15:50:38.712Z,17.76
2018-04-06T15:53:08.158Z,18.27
2018-04-06T15:55:38.541Z,18.43
2018-04-06T15:58:08.176Z,18.16
2018-04-06T16:00:38.109Z,18.46
2018-04-06T16:03:07.905Z,18.43
2018-04-06T16:05:37.697Z,18.81
2018-04-06T16:08:07.584Z,18.94
2018-04-06T16:10:37.046Z,19.02
2018-04-06T16:13:06.904Z,20.09
2018-04-06T16:15:37.299Z,20.05
2018-04-06T16:18:07.195Z,19.87
2018-04-06T16:20:37.289Z,19.98
2018-04-06T16:23:07.218Z,20.28
2018-04-06T16:25:36.581Z,20.16
2018-04-06T16:28:06.764Z,20.83
2018-04-06T16:30:36.726Z,21.54
2018-04-06T16:33:06.087Z,21.58
2018-04-06T16:35:35.698Z,21.53
2018-04-06T16:41:38.192Z,21.49
2018-04-06T16:44:08.753Z,21.60
2018-04-06T16:46:39.298Z,21.81
2018-04-06T16:49:09.037Z,22.43
2018-04-06T16:51:39.348Z,22.86
2018-04-06T16:54:08.415Z,22.99
2018-04-06T16:56:37.949Z,23.42
2018-04-06T16:59:07.848Z,23.91
2018-04-06T17:01:38.644Z,24.48
2018-04-06T17:04:08.342Z,24.78
2018-04-06T17:06:38.566Z,25.21
2018-04-06T17:09:08.232Z,25.54
2018-04-06T17:11:38.049Z,26.12
2018-04-06T17:14:07.642Z,26.29
2018-04-06T17:16:37.577Z,26.37
2018-04-06T17:19:07.638Z,26.83
2018-04-06T17:21:38.132Z,26.96
2018-04-06T17:24:08.023Z,27.17
2018-04-06T17:26:38.451Z,27.35
2018-04-06T17:29:08.371Z,27.63
2018-04-06T17:31:38.147Z,27.67
2018-04-06T17:34:08.140Z,27.86
2018-04-06T17:36:37.762Z,28.12
2018-04-06T17:39:08.135Z,28.28
2018-04-06T17:41:38.786Z,28.61
2018-04-06T17:44:08.220Z,28.78
2018-04-06T17:46:38.532Z,28.72
2018-04-06T17:49:08.676Z,28.98
2018-04-06T17:51:38.295Z,29.06
2018-04-06T17:54:07.841Z,29.09
2018-04-06T17:56:37.236Z,29.41
2018-04-06T17:59:06.206Z,29.60
2018-04-06T18:01:36.533Z,29.68
2018-04-06T18:04:07.182Z,29.73
2018-04-06T18:06:37.124Z,29.92
2018-04-06T18:09:07.404Z,29.89
2018-04-06T18:11:37.314Z,30.05
2018-04-06T18:14:06.914Z,30.26
2018-04-06T18:16:37.276Z,30.76
2018-04-06T18:19:06.835Z,30.37
2018-04-06T18:21:36.650Z,30.52
2018-04-06T18:24:08.069Z,30.68
2018-04-06T18:26:37.925Z,30.99
2018-04-06T18:29:07.840Z,30.85
2018-04-06T18:31:37.744Z,30.96
2018-04-06T18:34:07.384Z,31.21
2018-04-06T18:36:36.977Z,31.38
2018-04-06T18:39:07.591Z,31.30
2018-04-06T18:41:37.964Z,31.41
2018-04-06T18:44:08.465Z,31.59
2018-04-06T18:48:07.041Z,31.67
2018-04-06T18:50:37.172Z,31.77
2018-04-06T18:53:06.614Z,32.01
2018-04-06T18:55:36.383Z,32.26
2018-04-06T18:58:07.213Z,32.20
2018-04-06T19:00:37.242Z,32.35
2018-04-06T19:03:06.226Z,32.56
2018-04-06T19:05:35.526Z,32.55
2018-04-06T19:08:06.891Z,32.62
2018-04-06T19:10:36.464Z,32.78
2018-04-06T19:13:07.794Z,32.93
2018-04-06T19:15:37.534Z,32.96
2018-04-06T19:18:07.224Z,33.16
2018-04-06T19:20:36.515Z,33.12
2018-04-06T19:23:05.765Z,33.35
2018-04-06T19:25:35.953Z,33.54
2018-04-06T19:28:06.391Z,33.51
2018-04-06T19:30:36.050Z,33.63
2018-04-06T19:33:06.603Z,33.84
2018-04-06T19:35:36.537Z,34.20
2018-04-06T19:38:06.955Z,34.20
2018-04-06T19:40:37.347Z,34.01
2018-04-06T19:43:06.814Z,34.13
2018-04-06T19:45:35.719Z,34.38
2018-04-06T19:48:05.670Z,34.32
2018-04-06T19:50:34.824Z,34.39
2018-04-06T19:53:04.568Z,34.65
2018-04-06T19:55:34.700Z,34.63
2018-04-06T19:58:04.968Z,34.46
2018-04-06T20:00:34.366Z,34.75
2018-04-06T20:03:05.304Z,34.84
2018-04-06T20:05:35.418Z,34.98
2018-04-06T20:08:07.768Z,35.08
2018-04-06T20:10:37.901Z,35.20
2018-04-06T20:13:07.546Z,35.42
2018-04-06T20:15:38.171Z,35.27
2018-04-06T20:18:07.314Z,35.44
2018-04-06T20:20:37.211Z,35.72
2018-04-06T20:23:07.141Z,35.85
2018-04-06T20:25:36.871Z,36.21
2018-04-06T20:28:07.401Z,36.00
2018-04-06T20:30:36.926Z,36.00
2018-04-06T20:33:06.673Z,36.08
2018-04-06T20:35:37.219Z,36.14
2018-04-06T20:38:07.753Z,36.29
2018-04-06T20:40:37.760Z,36.45
2018-04-06T20:43:06.997Z,36.67
2018-04-06T20:45:36.808Z,36.78
2018-04-06T20:48:07.006Z,36.84
2018-04-06T20:50:36.642Z,36.87
2018-04-06T20:53:06.392Z,36.94
2018-04-06T20:55:36.937Z,37.10
2018-04-06T20:58:06.930Z,37.10
2018-04-06T21:00:36.689Z,37.29
2018-04-06T21:03:06.381Z,37.40
2018-04-06T21:05:35.571Z,37.36
2018-04-06T21:08:05.467Z,37.35
2018-04-06T21:10:35.714Z,37.53
2018-04-06T21:13:05.943Z,37.78
2018-04-06T21:15:35.585Z,37.83
2018-04-06T21:18:05.942Z,37.84
2018-04-06T21:20:35.654Z,37.66
2018-04-06T21:23:05.211Z,37.59
2018-04-06T21:25:35.175Z,38.11
2018-04-06T21:28:06.030Z,37.75
2018-04-06T21:30:35.614Z,37.81
2018-04-06T21:33:05.778Z,37.71
2018-04-06T21:35:35.661Z,37.87
2018-04-06T21:38:07.324Z,37.97
2018-04-06T21:40:38.080Z,38.06
2018-04-06T21:43:07.184Z,38.04
2018-04-06T21:45:36.788Z,38.14
2018-04-06T21:48:07.650Z,38.13
2018-04-06T21:50:37.648Z,38.17
2018-04-06T21:53:07.512Z,38.31
2018-04-06T21:55:37.880Z,38.45
2018-04-06T21:58:07.694Z,38.50
2018-04-06T22:00:37.528Z,38.65
2018-04-06T22:03:07.099Z,38.72
2018-04-06T22:05:36.981Z,38.70
2018-04-06T22:08:08.961Z,38.84
2018-04-06T22:10:38.614Z,38.90
2018-04-06T22:13:08.125Z,39.12
2018-04-06T22:15:38.447Z,39.55
2018-04-06T22:18:07.977Z,39.30
2018-04-06T22:20:37.757Z,39.40
2018-04-06T22:23:07.101Z,39.43
2018-04-06T22:25:36.819Z,39.40
2018-04-06T22:28:06.895Z,39.50
2018-04-06T22:30:37.896Z,39.60
2018-04-06T22:33:07.266Z,39.73
2018-04-06T22:35:36.879Z,39.94
2018-04-06T22:38:06.781Z,39.92
2018-04-06T22:40:36.255Z,40.09
2018-04-06T22:43:06.053Z,40.25
2018-04-06T22:45:35.450Z,40.09
2018-04-06T22:48:05.604Z,40.25
2018-04-06T22:50:35.747Z,40.48
2018-04-06T22:53:05.053Z,40.72
2018-04-06T22:55:34.527Z,40.95
2018-04-06T22:58:06.292Z,40.98
2018-04-06T23:00:35.561Z,40.94
2018-04-06T23:03:05.148Z,40.78
2018-04-06T23:05:34.382Z,40.81
2018-04-06T23:08:05.350Z,41.01
2018-04-06T23:10:37.318Z,41.30
2018-04-06T23:13:06.721Z,41.28
2018-04-06T23:15:36.604Z,41.64
2018-04-06T23:18:06.791Z,41.42
2018-04-06T23:20:36.720Z,41.57
2018-04-06T23:23:06.142Z,41.49
2018-04-06T23:25:36.043Z,41.59
2018-04-06T23:28:07.365Z,41.64
2018-04-06T23:30:36.769Z,41.85
2018-04-06T23:33:06.274Z,42.08
2018-04-06T23:35:35.475Z,41.82
2018-04-06T23:38:06.101Z,41.78
2018-04-06T23:40:35.325Z,41.86
2018-04-06T23:43:04.510Z,41.98
2018-04-06T23:45:33.489Z,42.07
2018-04-06T23:48:04.239Z,42.05
2018-04-06T23:50:33.253Z,42.22
2018-04-06T23:53:03.132Z,42.30
2018-04-06T23:55:32.082Z,42.34
2018-04-06T23:58:01.146Z,42.57
